Albion Bay — 3FLD3 — position and weather

sailwx.info

Track history (hours):
 
Tides and Currents Weather Stations Pressure Air Temp Water Temp Dewpoint Dewpoint Depression Visibility Wind Speed Wind Dir Waves Ship Positions

Albion Bay

Last reported at 2017-Oct-02 12:09 UTC. Time now 2017-Oct-23 04:33 UTC.
Position N 16°17' W 062°45'.
Warning: this ship's position is 20 days out of date.

Length 197 m; draft 6.9 m.

Type: Cargo ship. MMSI: 372361000.

Date/timePositionNaut miles runAvg speedWind from/ knotsBaromVisibWave heightAir tempDewpointWater temp
2017-Oct-02 12:09N 16°17' W 062°45'214.2
2017-Oct-02 12:00N 16°17' W 062°43'714.2
2017-Oct-02 11:30N 16°19' W 062°36'1614.0
2017-Oct-02 10:21N 16°25' W 062°20'514.1
2017-Oct-02 10:00N 16°26' W 062°15'3814.2
2017-Oct-02 07:21N 16°41' W 061°39'514.3
2017-Oct-02 07:00N 16°43' W 061°34'914.5
2017-Oct-02 06:21N 16°47' W 061°25'514.1
2017-Oct-02 06:01N 16°50' W 061°21'714.0
2017-Oct-02 05:31N 16°53' W 061°14'714.3
2017-Oct-02 05:01N 16°56' W 061°07'714.1
2017-Oct-02 04:30N 16°59' W 061°01'  
2017-Sep-25 21:47N 35°37' W 026°56'1013.4
2017-Sep-25 21:04N 35°39' W 026°44'1213.6
2017-Sep-25 20:09N 35°41' W 026°29'213.7
2017-Sep-25 20:00N 35°41' W 026°27'713.7
2017-Sep-25 19:28N 35°42' W 026°18'613.4
2017-Sep-25 19:00N 35°42' W 026°10'713.2
2017-Sep-25 18:30N 35°43' W 026°02'1113.5
2017-Sep-25 17:42N 35°45' W 025°49'313.4
2017-Sep-25 17:30N 35°45' W 025°46'713.5
2017-Sep-25 17:00N 35°46' W 025°38'713.4
2017-Sep-25 16:30N 35°47' W 025°29'713.5
2017-Sep-25 16:00N 35°48' W 025°21'713.4
2017-Sep-25 15:30N 35°49' W 025°13'713.1
2017-Sep-25 15:00N 35°50' W 025°05'713.2
2017-Sep-25 14:31N 35°50' W 024°57'713.2
2017-Sep-25 14:00N 35°52' W 024°49'613.0
2017-Sep-25 13:30N 35°52' W 024°41'613.0
2017-Sep-25 13:01N 35°53' W 024°33'713.3
2017-Sep-25 12:30N 35°54' W 024°25'713.3
2017-Sep-25 12:00N 35°55' W 024°17'713.5
2017-Sep-25 11:30N 35°55' W 024°08'713.2
2017-Sep-25 11:00N 35°55' W 024°00'43113.0
2017-Sep-24 01:57N 35°56' W 015°08'613.3
2017-Sep-24 01:30N 35°56' W 015°00'1313.6
2017-Sep-24 00:32N 35°56' W 014°44'013.4
2017-Sep-24 00:30N 35°56' W 014°44'2613.9
2017-Sep-23 22:37N 35°57' W 014°11'213.8
2017-Sep-23 22:30N 35°57' W 014°09'714.1
2017-Sep-23 22:00N 35°57' W 014°01'714.4
2017-Sep-23 21:30N 35°57' W 013°52'714.2
2017-Sep-23 21:00N 35°57' W 013°43'714.1
2017-Sep-23 20:30N 35°57' W 013°35'714.3
2017-Sep-23 20:00N 35°57' W 013°26'  
Track history (hours):
 
Tides and Currents Weather Stations Pressure Air Temp Water Temp Dewpoint Dewpoint Depression Visibility Wind Speed Wind Dir Waves Ship Positions

Albion Bay

Last reported at 2017-Oct-02 12:09 UTC. Time now 2017-Oct-23 04:33 UTC.
Position N 16°17' W 062°45'.
Warning: this ship's position is 20 days out of date.

Length 197 m; draft 6.9 m.

Type: Cargo ship. MMSI: 372361000.

Date/timePositionNaut miles runAvg speedWind from/ knotsBaromVisibWave heightAir tempDewpointWater temp
2017-Oct-02 12:09N 16°17' W 062°45'214.2
2017-Oct-02 12:00N 16°17' W 062°43'714.2
2017-Oct-02 11:30N 16°19' W 062°36'1614.0
2017-Oct-02 10:21N 16°25' W 062°20'514.1
2017-Oct-02 10:00N 16°26' W 062°15'3814.2
2017-Oct-02 07:21N 16°41' W 061°39'514.3
2017-Oct-02 07:00N 16°43' W 061°34'914.5
2017-Oct-02 06:21N 16°47' W 061°25'514.1
2017-Oct-02 06:01N 16°50' W 061°21'714.0
2017-Oct-02 05:31N 16°53' W 061°14'714.3
2017-Oct-02 05:01N 16°56' W 061°07'714.1
2017-Oct-02 04:30N 16°59' W 061°01'  
2017-Sep-25 21:47N 35°37' W 026°56'1013.4
2017-Sep-25 21:04N 35°39' W 026°44'1213.6
2017-Sep-25 20:09N 35°41' W 026°29'213.7
2017-Sep-25 20:00N 35°41' W 026°27'713.7
2017-Sep-25 19:28N 35°42' W 026°18'613.4
2017-Sep-25 19:00N 35°42' W 026°10'713.2
2017-Sep-25 18:30N 35°43' W 026°02'1113.5
2017-Sep-25 17:42N 35°45' W 025°49'313.4
2017-Sep-25 17:30N 35°45' W 025°46'713.5
2017-Sep-25 17:00N 35°46' W 025°38'713.4
2017-Sep-25 16:30N 35°47' W 025°29'713.5
2017-Sep-25 16:00N 35°48' W 025°21'713.4
2017-Sep-25 15:30N 35°49' W 025°13'713.1
2017-Sep-25 15:00N 35°50' W 025°05'713.2
2017-Sep-25 14:31N 35°50' W 024°57'713.2
2017-Sep-25 14:00N 35°52' W 024°49'613.0
2017-Sep-25 13:30N 35°52' W 024°41'613.0
2017-Sep-25 13:01N 35°53' W 024°33'713.3
2017-Sep-25 12:30N 35°54' W 024°25'713.3
2017-Sep-25 12:00N 35°55' W 024°17'713.5
2017-Sep-25 11:30N 35°55' W 024°08'713.2
2017-Sep-25 11:00N 35°55' W 024°00'43113.0
2017-Sep-24 01:57N 35°56' W 015°08'613.3
2017-Sep-24 01:30N 35°56' W 015°00'1313.6
2017-Sep-24 00:32N 35°56' W 014°44'013.4
2017-Sep-24 00:30N 35°56' W 014°44'2613.9
2017-Sep-23 22:37N 35°57' W 014°11'213.8
2017-Sep-23 22:30N 35°57' W 014°09'714.1
2017-Sep-23 22:00N 35°57' W 014°01'714.4
2017-Sep-23 21:30N 35°57' W 013°52'714.2
2017-Sep-23 21:00N 35°57' W 013°43'714.1
2017-Sep-23 20:30N 35°57' W 013°35'714.3
2017-Sep-23 20:00N 35°57' W 013°26'  

Dump ship's entire track history